sensor_id;sensor_type;location;lat;lon;timestamp;P1;durP1;ratioP1;P2;durP2;ratioP2
36651;SDS011;53334;51.976;20.144;2023-06-24T00:01:49;6.50;;;5.32;;
36651;SDS011;53334;51.976;20.144;2023-06-24T00:04:23;8.60;;;4.35;;
36651;SDS011;53334;51.976;20.144;2023-06-24T00:06:56;7.60;;;5.85;;
36651;SDS011;53334;51.976;20.144;2023-06-24T00:09:31;7.47;;;5.60;;
36651;SDS011;53334;51.976;20.144;2023-06-24T00:12:05;5.90;;;5.18;;
36651;SDS011;53334;51.976;20.144;2023-06-24T00:14:40;5.30;;;4.78;;
36651;SDS011;53334;51.976;20.144;2023-06-24T00:17:14;6.00;;;5.15;;
36651;SDS011;53334;51.976;20.144;2023-06-24T00:19:48;5.47;;;4.80;;
36651;SDS011;53334;51.976;20.144;2023-06-24T00:22:21;6.57;;;5.70;;
36651;SDS011;53334;51.976;20.144;2023-06-24T00:24:55;10.00;;;4.82;;
36651;SDS011;53334;51.976;20.144;2023-06-24T00:27:28;5.95;;;4.97;;
36651;SDS011;53334;51.976;20.144;2023-06-24T00:30:03;6.30;;;5.63;;
36651;SDS011;53334;51.976;20.144;2023-06-24T00:32:39;11.05;;;5.10;;
36651;SDS011;53334;51.976;20.144;2023-06-24T00:35:13;9.32;;;4.68;;
36651;SDS011;53334;51.976;20.144;2023-06-24T00:40:20;7.68;;;5.32;;
36651;SDS011;53334;51.976;20.144;2023-06-24T00:42:54;6.95;;;4.97;;
36651;SDS011;53334;51.976;20.144;2023-06-24T00:45:29;7.53;;;5.20;;
36651;SDS011;53334;51.976;20.144;2023-06-24T00:48:03;6.28;;;4.80;;
36651;SDS011;53334;51.976;20.144;2023-06-24T00:53:13;9.65;;;5.35;;
36651;SDS011;53334;51.976;20.144;2023-06-24T00:55:47;9.48;;;6.60;;
36651;SDS011;53334;51.976;20.144;2023-06-24T00:58:20;5.28;;;4.78;;
36651;SDS011;53334;51.976;20.144;2023-06-24T01:00:55;5.47;;;4.97;;
36651;SDS011;53334;51.976;20.144;2023-06-24T01:03:30;6.55;;;5.18;;
36651;SDS011;53334;51.976;20.144;2023-06-24T01:08:37;5.72;;;4.68;;
36651;SDS011;53334;51.976;20.144;2023-06-24T01:11:11;5.97;;;4.90;;
36651;SDS011;53334;51.976;20.144;2023-06-24T01:13:44;8.07;;;5.82;;
36651;SDS011;53334;51.976;20.144;2023-06-24T01:16:23;5.60;;;4.97;;
36651;SDS011;53334;51.976;20.144;2023-06-24T01:19:03;6.40;;;5.07;;
36651;SDS011;53334;51.976;20.144;2023-06-24T01:21:49;6.90;;;5.30;;
36651;SDS011;53334;51.976;20.144;2023-06-24T01:24:37;8.00;;;5.07;;
36651;SDS011;53334;51.976;20.144;2023-06-24T01:30:36;6.05;;;5.35;;
36651;SDS011;53334;51.976;20.144;2023-06-24T01:33:22;6.57;;;4.93;;
36651;SDS011;53334;51.976;20.144;2023-06-24T01:35:59;6.25;;;4.85;;
36651;SDS011;53334;51.976;20.144;2023-06-24T01:38:36;7.53;;;5.63;;
36651;SDS011;53334;51.976;20.144;2023-06-24T01:41:15;7.38;;;4.88;;
36651;SDS011;53334;51.976;20.144;2023-06-24T01:43:54;6.85;;;5.78;;
36651;SDS011;53334;51.976;20.144;2023-06-24T01:46:29;7.03;;;5.25;;
36651;SDS011;53334;51.976;20.144;2023-06-24T01:49:05;6.10;;;4.88;;
36651;SDS011;53334;51.976;20.144;2023-06-24T01:51:41;6.07;;;5.22;;
36651;SDS011;53334;51.976;20.144;2023-06-24T01:54:19;6.15;;;4.97;;
36651;SDS011;53334;51.976;20.144;2023-06-24T01:56:54;5.65;;;5.07;;
36651;SDS011;53334;51.976;20.144;2023-06-24T01:59:30;6.55;;;5.10;;
36651;SDS011;53334;51.976;20.144;2023-06-24T02:02:04;8.10;;;5.43;;
36651;SDS011;53334;51.976;20.144;2023-06-24T02:04:40;5.07;;;4.50;;
36651;SDS011;53334;51.976;20.144;2023-06-24T02:07:15;7.75;;;5.10;;
36651;SDS011;53334;51.976;20.144;2023-06-24T02:09:52;5.80;;;4.70;;
36651;SDS011;53334;51.976;20.144;2023-06-24T02:12:26;7.22;;;4.93;;
36651;SDS011;53334;51.976;20.144;2023-06-24T02:15:01;4.55;;;4.15;;
36651;SDS011;53334;51.976;20.144;2023-06-24T02:17:36;5.38;;;4.57;;
36651;SDS011;53334;51.976;20.144;2023-06-24T02:20:13;6.20;;;4.80;;
36651;SDS011;53334;51.976;20.144;2023-06-24T02:22:49;7.28;;;4.60;;
36651;SDS011;53334;51.976;20.144;2023-06-24T02:25:22;5.88;;;4.45;;
36651;SDS011;53334;51.976;20.144;2023-06-24T02:27:57;6.35;;;5.10;;
36651;SDS011;53334;51.976;20.144;2023-06-24T02:30:30;11.73;;;5.28;;
36651;SDS011;53334;51.976;20.144;2023-06-24T02:33:05;9.15;;;5.80;;
36651;SDS011;53334;51.976;20.144;2023-06-24T02:35:40;11.43;;;5.13;;
36651;SDS011;53334;51.976;20.144;2023-06-24T02:38:16;8.15;;;5.43;;
36651;SDS011;53334;51.976;20.144;2023-06-24T02:40:51;6.90;;;4.78;;
36651;SDS011;53334;51.976;20.144;2023-06-24T02:43:25;9.43;;;4.88;;
36651;SDS011;53334;51.976;20.144;2023-06-24T02:45:59;6.38;;;4.90;;
36651;SDS011;53334;51.976;20.144;2023-06-24T02:48:34;6.75;;;4.88;;
36651;SDS011;53334;51.976;20.144;2023-06-24T02:51:10;6.90;;;5.05;;
36651;SDS011;53334;51.976;20.144;2023-06-24T02:53:45;5.68;;;4.63;;
36651;SDS011;53334;51.976;20.144;2023-06-24T02:56:21;5.85;;;4.68;;
36651;SDS011;53334;51.976;20.144;2023-06-24T02:58:56;7.60;;;5.38;;
36651;SDS011;53334;51.976;20.144;2023-06-24T03:01:31;8.98;;;5.78;;
36651;SDS011;53334;51.976;20.144;2023-06-24T03:04:10;6.38;;;5.00;;
36651;SDS011;53334;51.976;20.144;2023-06-24T03:09:21;5.40;;;4.82;;
36651;SDS011;53334;51.976;20.144;2023-06-24T03:11:54;5.88;;;5.03;;
36651;SDS011;53334;51.976;20.144;2023-06-24T03:14:37;5.30;;;4.80;;
36651;SDS011;53334;51.976;20.144;2023-06-24T03:17:11;5.40;;;4.80;;
36651;SDS011;53334;51.976;20.144;2023-06-24T03:19:44;6.50;;;4.70;;
36651;SDS011;53334;51.976;20.144;2023-06-24T03:22:21;5.70;;;5.10;;
36651;SDS011;53334;51.976;20.144;2023-06-24T03:24:55;5.75;;;4.82;;
36651;SDS011;53334;51.976;20.144;2023-06-24T03:27:29;5.00;;;4.40;;
36651;SDS011;53334;51.976;20.144;2023-06-24T03:30:03;6.65;;;4.63;;
36651;SDS011;53334;51.976;20.144;2023-06-24T03:32:39;6.50;;;5.28;;
36651;SDS011;53334;51.976;20.144;2023-06-24T03:35:19;8.38;;;4.53;;
36651;SDS011;53334;51.976;20.144;2023-06-24T03:37:55;11.57;;;5.10;;
36651;SDS011;53334;51.976;20.144;2023-06-24T03:40:28;5.25;;;4.63;;
36651;SDS011;53334;51.976;20.144;2023-06-24T03:43:02;5.70;;;4.95;;
36651;SDS011;53334;51.976;20.144;2023-06-24T03:45:35;5.72;;;5.13;;
36651;SDS011;53334;51.976;20.144;2023-06-24T03:50:43;5.45;;;4.65;;
36651;SDS011;53334;51.976;20.144;2023-06-24T03:53:17;5.95;;;5.03;;
36651;SDS011;53334;51.976;20.144;2023-06-24T03:55:51;5.72;;;5.10;;
36651;SDS011;53334;51.976;20.144;2023-06-24T03:58:24;5.30;;;4.53;;
36651;SDS011;53334;51.976;20.144;2023-06-24T04:00:59;6.65;;;4.90;;
36651;SDS011;53334;51.976;20.144;2023-06-24T04:03:33;6.95;;;4.85;;
36651;SDS011;53334;51.976;20.144;2023-06-24T04:06:06;6.53;;;4.95;;
36651;SDS011;53334;51.976;20.144;2023-06-24T04:08:41;6.68;;;4.32;;
36651;SDS011;53334;51.976;20.144;2023-06-24T04:11:15;5.68;;;4.75;;
36651;SDS011;53334;51.976;20.144;2023-06-24T04:13:48;4.57;;;4.18;;
36651;SDS011;53334;51.976;20.144;2023-06-24T04:16:21;8.30;;;5.32;;
36651;SDS011;53334;51.976;20.144;2023-06-24T04:18:55;6.85;;;4.60;;
36651;SDS011;53334;51.976;20.144;2023-06-24T04:21:29;5.18;;;4.13;;
36651;SDS011;53334;51.976;20.144;2023-06-24T04:24:04;5.85;;;5.10;;
36651;SDS011;53334;51.976;20.144;2023-06-24T04:26:37;5.25;;;4.35;;
36651;SDS011;53334;51.976;20.144;2023-06-24T04:29:11;5.60;;;4.40;;
36651;SDS011;53334;51.976;20.144;2023-06-24T04:31:44;6.53;;;4.65;;
36651;SDS011;53334;51.976;20.144;2023-06-24T04:34:17;9.88;;;4.80;;
36651;SDS011;53334;51.976;20.144;2023-06-24T04:36:52;5.93;;;5.10;;
36651;SDS011;53334;51.976;20.144;2023-06-24T04:39:26;7.00;;;4.85;;
36651;SDS011;53334;51.976;20.144;2023-06-24T04:41:59;5.90;;;4.65;;
36651;SDS011;53334;51.976;20.144;2023-06-24T04:44:33;10.13;;;5.28;;
36651;SDS011;53334;51.976;20.144;2023-06-24T04:47:06;5.65;;;4.78;;
36651;SDS011;53334;51.976;20.144;2023-06-24T04:49:40;5.63;;;4.55;;
36651;SDS011;53334;51.976;20.144;2023-06-24T04:52:13;5.93;;;5.32;;
36651;SDS011;53334;51.976;20.144;2023-06-24T04:54:48;6.43;;;5.13;;
36651;SDS011;53334;51.976;20.144;2023-06-24T04:57:25;7.15;;;4.80;;
36651;SDS011;53334;51.976;20.144;2023-06-24T05:00:00;7.32;;;4.75;;
36651;SDS011;53334;51.976;20.144;2023-06-24T05:02:34;8.45;;;4.35;;
36651;SDS011;53334;51.976;20.144;2023-06-24T05:05:08;9.07;;;5.45;;
36651;SDS011;53334;51.976;20.144;2023-06-24T05:07:41;5.82;;;5.10;;
36651;SDS011;53334;51.976;20.144;2023-06-24T05:10:16;6.35;;;4.85;;
36651;SDS011;53334;51.976;20.144;2023-06-24T05:12:50;6.13;;;5.35;;
36651;SDS011;53334;51.976;20.144;2023-06-24T05:15:23;6.20;;;4.82;;
36651;SDS011;53334;51.976;20.144;2023-06-24T05:17:56;5.55;;;4.95;;
36651;SDS011;53334;51.976;20.144;2023-06-24T05:20:29;6.40;;;4.95;;
36651;SDS011;53334;51.976;20.144;2023-06-24T05:23:03;8.30;;;4.93;;
36651;SDS011;53334;51.976;20.144;2023-06-24T05:25:37;6.30;;;4.82;;
36651;SDS011;53334;51.976;20.144;2023-06-24T05:28:10;6.50;;;5.60;;
36651;SDS011;53334;51.976;20.144;2023-06-24T05:30:44;5.97;;;5.22;;
36651;SDS011;53334;51.976;20.144;2023-06-24T05:35:51;5.40;;;4.80;;
36651;SDS011;53334;51.976;20.144;2023-06-24T05:38:24;6.07;;;4.82;;
36651;SDS011;53334;51.976;20.144;2023-06-24T05:40:59;6.60;;;5.40;;
36651;SDS011;53334;51.976;20.144;2023-06-24T05:43:34;7.45;;;4.60;;
36651;SDS011;53334;51.976;20.144;2023-06-24T05:46:07;6.18;;;5.43;;
36651;SDS011;53334;51.976;20.144;2023-06-24T05:48:40;7.40;;;5.28;;
36651;SDS011;53334;51.976;20.144;2023-06-24T05:51:14;5.68;;;5.10;;
36651;SDS011;53334;51.976;20.144;2023-06-24T05:53:47;5.18;;;4.68;;
36651;SDS011;53334;51.976;20.144;2023-06-24T05:56:21;6.95;;;5.20;;
36651;SDS011;53334;51.976;20.144;2023-06-24T05:58:55;6.00;;;4.82;;
36651;SDS011;53334;51.976;20.144;2023-06-24T06:01:28;6.85;;;5.30;;
36651;SDS011;53334;51.976;20.144;2023-06-24T06:04:02;6.75;;;5.35;;
36651;SDS011;53334;51.976;20.144;2023-06-24T06:09:08;5.80;;;4.53;;
36651;SDS011;53334;51.976;20.144;2023-06-24T06:11:43;5.95;;;4.70;;
36651;SDS011;53334;51.976;20.144;2023-06-24T06:14:16;6.40;;;4.88;;
36651;SDS011;53334;51.976;20.144;2023-06-24T06:16:49;6.50;;;5.28;;
36651;SDS011;53334;51.976;20.144;2023-06-24T06:19:23;5.57;;;4.97;;
36651;SDS011;53334;51.976;20.144;2023-06-24T06:21:56;8.38;;;5.78;;
36651;SDS011;53334;51.976;20.144;2023-06-24T06:24:29;9.20;;;6.00;;
36651;SDS011;53334;51.976;20.144;2023-06-24T06:27:04;6.35;;;5.68;;
36651;SDS011;53334;51.976;20.144;2023-06-24T06:29:41;11.43;;;6.35;;
36651;SDS011;53334;51.976;20.144;2023-06-24T06:32:14;7.13;;;6.40;;
36651;SDS011;53334;51.976;20.144;2023-06-24T06:34:47;8.70;;;6.68;;
36651;SDS011;53334;51.976;20.144;2023-06-24T06:37:21;6.07;;;5.43;;
36651;SDS011;53334;51.976;20.144;2023-06-24T06:39:54;13.05;;;6.35;;
36651;SDS011;53334;51.976;20.144;2023-06-24T06:42:29;8.85;;;5.65;;
36651;SDS011;53334;51.976;20.144;2023-06-24T06:45:02;8.75;;;6.40;;
36651;SDS011;53334;51.976;20.144;2023-06-24T06:47:36;6.88;;;6.22;;
36651;SDS011;53334;51.976;20.144;2023-06-24T06:50:09;11.07;;;6.72;;
36651;SDS011;53334;51.976;20.144;2023-06-24T06:52:43;10.77;;;6.55;;
36651;SDS011;53334;51.976;20.144;2023-06-24T06:55:16;9.65;;;5.65;;
36651;SDS011;53334;51.976;20.144;2023-06-24T06:57:51;11.93;;;6.65;;
36651;SDS011;53334;51.976;20.144;2023-06-24T07:00:25;11.45;;;5.93;;
36651;SDS011;53334;51.976;20.144;2023-06-24T07:02:58;7.50;;;5.55;;
36651;SDS011;53334;51.976;20.144;2023-06-24T07:05:31;8.90;;;6.70;;
36651;SDS011;53334;51.976;20.144;2023-06-24T07:08:09;8.15;;;5.60;;
36651;SDS011;53334;51.976;20.144;2023-06-24T07:10:42;9.98;;;6.57;;
36651;SDS011;53334;51.976;20.144;2023-06-24T07:13:17;8.77;;;6.30;;
36651;SDS011;53334;51.976;20.144;2023-06-24T07:15:50;5.82;;;4.80;;
36651;SDS011;53334;51.976;20.144;2023-06-24T07:18:24;7.50;;;5.63;;
36651;SDS011;53334;51.976;20.144;2023-06-24T07:21:01;8.68;;;6.40;;
36651;SDS011;53334;51.976;20.144;2023-06-24T07:23:35;10.25;;;6.00;;
36651;SDS011;53334;51.976;20.144;2023-06-24T07:26:08;10.20;;;5.70;;
36651;SDS011;53334;51.976;20.144;2023-06-24T07:28:43;8.65;;;5.63;;
36651;SDS011;53334;51.976;20.144;2023-06-24T07:31:27;10.43;;;5.88;;
36651;SDS011;53334;51.976;20.144;2023-06-24T07:34:00;5.32;;;4.82;;
36651;SDS011;53334;51.976;20.144;2023-06-24T07:36:34;11.98;;;6.03;;
36651;SDS011;53334;51.976;20.144;2023-06-24T07:39:07;9.50;;;5.63;;
36651;SDS011;53334;51.976;20.144;2023-06-24T07:41:40;8.35;;;5.47;;
36651;SDS011;53334;51.976;20.144;2023-06-24T07:44:15;6.93;;;4.97;;
36651;SDS011;53334;51.976;20.144;2023-06-24T07:46:48;7.10;;;4.85;;
36651;SDS011;53334;51.976;20.144;2023-06-24T07:49:22;9.35;;;5.20;;
36651;SDS011;53334;51.976;20.144;2023-06-24T07:51:56;8.18;;;5.25;;
36651;SDS011;53334;51.976;20.144;2023-06-24T07:54:29;8.32;;;5.25;;
36651;SDS011;53334;51.976;20.144;2023-06-24T07:57:02;12.77;;;5.28;;
36651;SDS011;53334;51.976;20.144;2023-06-24T07:59:37;13.63;;;5.75;;
36651;SDS011;53334;51.976;20.144;2023-06-24T08:02:11;8.68;;;4.65;;
36651;SDS011;53334;51.976;20.144;2023-06-24T08:04:44;6.63;;;5.22;;
36651;SDS011;53334;51.976;20.144;2023-06-24T08:07:17;5.97;;;4.75;;
36651;SDS011;53334;51.976;20.144;2023-06-24T08:09:51;5.75;;;5.25;;
36651;SDS011;53334;51.976;20.144;2023-06-24T08:12:24;6.82;;;4.97;;
36651;SDS011;53334;51.976;20.144;2023-06-24T08:14:59;5.65;;;4.68;;
36651;SDS011;53334;51.976;20.144;2023-06-24T08:17:32;11.57;;;5.28;;
36651;SDS011;53334;51.976;20.144;2023-06-24T08:20:06;7.63;;;4.90;;
36651;SDS011;53334;51.976;20.144;2023-06-24T08:22:40;6.32;;;4.88;;
36651;SDS011;53334;51.976;20.144;2023-06-24T08:25:13;8.43;;;5.32;;
36651;SDS011;53334;51.976;20.144;2023-06-24T08:27:46;10.05;;;5.30;;
36651;SDS011;53334;51.976;20.144;2023-06-24T08:30:21;8.35;;;5.50;;
36651;SDS011;53334;51.976;20.144;2023-06-24T08:32:55;10.15;;;5.50;;
36651;SDS011;53334;51.976;20.144;2023-06-24T08:35:28;8.25;;;5.20;;
36651;SDS011;53334;51.976;20.144;2023-06-24T08:38:02;7.45;;;5.63;;
36651;SDS011;53334;51.976;20.144;2023-06-24T08:40:35;8.48;;;5.07;;
36651;SDS011;53334;51.976;20.144;2023-06-24T08:43:11;9.43;;;4.95;;
36651;SDS011;53334;51.976;20.144;2023-06-24T08:45:46;7.25;;;5.32;;
36651;SDS011;53334;51.976;20.144;2023-06-24T08:48:19;9.02;;;5.30;;
36651;SDS011;53334;51.976;20.144;2023-06-24T08:50:53;11.02;;;5.75;;
36651;SDS011;53334;51.976;20.144;2023-06-24T08:53:30;8.55;;;4.80;;
36651;SDS011;53334;51.976;20.144;2023-06-24T08:56:04;9.73;;;5.15;;
36651;SDS011;53334;51.976;20.144;2023-06-24T08:58:37;6.20;;;5.45;;
36651;SDS011;53334;51.976;20.144;2023-06-24T09:01:12;13.13;;;5.53;;
36651;SDS011;53334;51.976;20.144;2023-06-24T09:03:46;6.93;;;5.60;;
36651;SDS011;53334;51.976;20.144;2023-06-24T09:06:19;8.32;;;5.07;;
36651;SDS011;53334;51.976;20.144;2023-06-24T09:08:53;8.88;;;5.22;;
36651;SDS011;53334;51.976;20.144;2023-06-24T09:11:27;9.63;;;5.70;;
36651;SDS011;53334;51.976;20.144;2023-06-24T09:14:00;7.68;;;5.88;;
36651;SDS011;53334;51.976;20.144;2023-06-24T09:16:35;10.85;;;6.40;;
36651;SDS011;53334;51.976;20.144;2023-06-24T09:19:08;9.18;;;5.93;;
36651;SDS011;53334;51.976;20.144;2023-06-24T09:21:41;8.20;;;6.10;;
36651;SDS011;53334;51.976;20.144;2023-06-24T09:24:18;10.98;;;6.10;;
36651;SDS011;53334;51.976;20.144;2023-06-24T09:26:51;15.75;;;6.28;;
36651;SDS011;53334;51.976;20.144;2023-06-24T09:29:31;11.73;;;6.05;;
36651;SDS011;53334;51.976;20.144;2023-06-24T09:32:07;8.43;;;6.05;;
36651;SDS011;53334;51.976;20.144;2023-06-24T09:34:41;10.38;;;6.68;;
36651;SDS011;53334;51.976;20.144;2023-06-24T09:37:20;12.70;;;7.10;;
36651;SDS011;53334;51.976;20.144;2023-06-24T09:39:55;9.73;;;6.85;;
36651;SDS011;53334;51.976;20.144;2023-06-24T09:42:28;9.98;;;6.88;;
36651;SDS011;53334;51.976;20.144;2023-06-24T09:45:04;8.65;;;6.88;;
36651;SDS011;53334;51.976;20.144;2023-06-24T09:47:39;15.98;;;7.22;;
36651;SDS011;53334;51.976;20.144;2023-06-24T09:50:12;14.15;;;8.02;;
36651;SDS011;53334;51.976;20.144;2023-06-24T09:52:46;11.68;;;7.82;;
36651;SDS011;53334;51.976;20.144;2023-06-24T09:55:21;12.25;;;7.47;;
36651;SDS011;53334;51.976;20.144;2023-06-24T09:57:55;12.57;;;8.32;;
36651;SDS011;53334;51.976;20.144;2023-06-24T10:00:28;15.57;;;10.52;;
36651;SDS011;53334;51.976;20.144;2023-06-24T10:03:03;11.45;;;7.35;;
36651;SDS011;53334;51.976;20.144;2023-06-24T10:05:37;12.15;;;8.27;;
36651;SDS011;53334;51.976;20.144;2023-06-24T10:08:10;12.45;;;8.73;;
36651;SDS011;53334;51.976;20.144;2023-06-24T10:10:46;12.75;;;8.30;;
36651;SDS011;53334;51.976;20.144;2023-06-24T10:13:19;12.02;;;8.10;;
36651;SDS011;53334;51.976;20.144;2023-06-24T10:18:35;18.47;;;9.83;;
36651;SDS011;53334;51.976;20.144;2023-06-24T10:21:09;12.93;;;7.97;;
36651;SDS011;53334;51.976;20.144;2023-06-24T10:23:50;12.77;;;8.02;;
36651;SDS011;53334;51.976;20.144;2023-06-24T10:26:25;17.15;;;9.00;;
36651;SDS011;53334;51.976;20.144;2023-06-24T10:29:09;10.20;;;8.23;;
36651;SDS011;53334;51.976;20.144;2023-06-24T10:31:52;11.45;;;8.20;;
36651;SDS011;53334;51.976;20.144;2023-06-24T10:34:28;9.30;;;8.20;;
36651;SDS011;53334;51.976;20.144;2023-06-24T10:37:04;15.30;;;7.95;;
36651;SDS011;53334;51.976;20.144;2023-06-24T10:39:44;11.80;;;8.90;;
36651;SDS011;53334;51.976;20.144;2023-06-24T10:42:27;14.50;;;7.68;;
36651;SDS011;53334;51.976;20.144;2023-06-24T10:45:14;15.63;;;9.05;;
36651;SDS011;53334;51.976;20.144;2023-06-24T10:47:50;17.77;;;9.55;;
36651;SDS011;53334;51.976;20.144;2023-06-24T10:50:26;11.98;;;8.93;;
36651;SDS011;53334;51.976;20.144;2023-06-24T10:53:00;12.60;;;9.32;;
36651;SDS011;53334;51.976;20.144;2023-06-24T10:55:35;14.10;;;9.52;;
36651;SDS011;53334;51.976;20.144;2023-06-24T10:58:09;12.35;;;9.43;;
36651;SDS011;53334;51.976;20.144;2023-06-24T11:00:44;12.70;;;9.52;;
36651;SDS011;53334;51.976;20.144;2023-06-24T11:03:18;11.77;;;10.55;;
36651;SDS011;53334;51.976;20.144;2023-06-24T11:05:54;12.30;;;9.88;;
36651;SDS011;53334;51.976;20.144;2023-06-24T11:08:28;11.43;;;9.55;;
36651;SDS011;53334;51.976;20.144;2023-06-24T11:11:01;16.52;;;10.57;;
36651;SDS011;53334;51.976;20.144;2023-06-24T11:13:35;12.60;;;9.90;;
36651;SDS011;53334;51.976;20.144;2023-06-24T11:16:13;11.65;;;9.07;;
36651;SDS011;53334;51.976;20.144;2023-06-24T11:18:46;11.93;;;8.30;;
36651;SDS011;53334;51.976;20.144;2023-06-24T11:21:21;14.23;;;9.10;;
36651;SDS011;53334;51.976;20.144;2023-06-24T11:24:01;15.95;;;9.50;;
36651;SDS011;53334;51.976;20.144;2023-06-24T11:26:35;12.75;;;8.02;;
36651;SDS011;53334;51.976;20.144;2023-06-24T11:29:09;15.55;;;7.82;;
36651;SDS011;53334;51.976;20.144;2023-06-24T11:31:44;8.45;;;7.22;;
36651;SDS011;53334;51.976;20.144;2023-06-24T11:34:18;11.63;;;7.43;;
36651;SDS011;53334;51.976;20.144;2023-06-24T11:36:52;10.75;;;7.45;;
36651;SDS011;53334;51.976;20.144;2023-06-24T11:39:26;10.60;;;7.65;;
36651;SDS011;53334;51.976;20.144;2023-06-24T11:42:00;9.40;;;6.82;;
36651;SDS011;53334;51.976;20.144;2023-06-24T11:44:33;8.65;;;7.75;;
36651;SDS011;53334;51.976;20.144;2023-06-24T11:47:07;13.90;;;6.80;;
36651;SDS011;53334;51.976;20.144;2023-06-24T11:49:47;10.93;;;6.82;;
36651;SDS011;53334;51.976;20.144;2023-06-24T11:52:28;7.45;;;5.80;;
36651;SDS011;53334;51.976;20.144;2023-06-24T11:55:10;6.18;;;5.57;;
36651;SDS011;53334;51.976;20.144;2023-06-24T11:57:51;12.35;;;6.45;;
36651;SDS011;53334;51.976;20.144;2023-06-24T12:00:27;11.13;;;5.95;;
36651;SDS011;53334;51.976;20.144;2023-06-24T12:03:01;11.02;;;6.50;;
36651;SDS011;53334;51.976;20.144;2023-06-24T12:05:41;9.27;;;5.82;;
36651;SDS011;53334;51.976;20.144;2023-06-24T12:08:21;11.02;;;5.80;;
36651;SDS011;53334;51.976;20.144;2023-06-24T12:10:54;7.72;;;5.45;;
36651;SDS011;53334;51.976;20.144;2023-06-24T12:13:28;6.78;;;5.20;;
36651;SDS011;53334;51.976;20.144;2023-06-24T12:16:01;6.43;;;5.50;;
36651;SDS011;53334;51.976;20.144;2023-06-24T12:18:34;10.15;;;5.63;;
36651;SDS011;53334;51.976;20.144;2023-06-24T12:21:08;4.60;;;4.15;;
36651;SDS011;53334;51.976;20.144;2023-06-24T12:23:43;7.90;;;5.22;;
36651;SDS011;53334;51.976;20.144;2023-06-24T12:26:16;8.30;;;4.55;;
36651;SDS011;53334;51.976;20.144;2023-06-24T12:28:50;6.15;;;4.30;;
36651;SDS011;53334;51.976;20.144;2023-06-24T12:31:23;5.82;;;4.38;;
36651;SDS011;53334;51.976;20.144;2023-06-24T12:33:57;6.75;;;4.55;;
36651;SDS011;53334;51.976;20.144;2023-06-24T12:36:30;6.20;;;5.25;;
36651;SDS011;53334;51.976;20.144;2023-06-24T12:39:05;5.40;;;4.70;;
36651;SDS011;53334;51.976;20.144;2023-06-24T12:41:38;6.53;;;4.90;;
36651;SDS011;53334;51.976;20.144;2023-06-24T12:44:11;6.00;;;4.57;;
36651;SDS011;53334;51.976;20.144;2023-06-24T12:46:44;8.32;;;4.72;;
36651;SDS011;53334;51.976;20.144;2023-06-24T12:49:18;6.07;;;4.72;;
36651;SDS011;53334;51.976;20.144;2023-06-24T12:51:51;5.50;;;5.00;;
36651;SDS011;53334;51.976;20.144;2023-06-24T12:54:26;5.70;;;5.07;;
36651;SDS011;53334;51.976;20.144;2023-06-24T12:56:59;5.93;;;4.85;;
36651;SDS011;53334;51.976;20.144;2023-06-24T12:59:44;5.45;;;4.68;;
36651;SDS011;53334;51.976;20.144;2023-06-24T13:02:17;6.03;;;4.40;;
36651;SDS011;53334;51.976;20.144;2023-06-24T13:04:51;7.00;;;4.55;;
36651;SDS011;53334;51.976;20.144;2023-06-24T13:09:59;7.00;;;5.03;;
36651;SDS011;53334;51.976;20.144;2023-06-24T13:12:34;5.00;;;4.50;;
36651;SDS011;53334;51.976;20.144;2023-06-24T13:17:42;6.35;;;4.10;;
36651;SDS011;53334;51.976;20.144;2023-06-24T13:20:15;6.22;;;4.90;;
36651;SDS011;53334;51.976;20.144;2023-06-24T13:22:48;5.25;;;4.78;;
36651;SDS011;53334;51.976;20.144;2023-06-24T13:25:23;4.43;;;4.03;;
36651;SDS011;53334;51.976;20.144;2023-06-24T13:27:56;5.47;;;4.50;;
36651;SDS011;53334;51.976;20.144;2023-06-24T13:30:29;6.30;;;4.25;;
36651;SDS011;53334;51.976;20.144;2023-06-24T13:33:03;4.63;;;4.18;;
36651;SDS011;53334;51.976;20.144;2023-06-24T13:35:36;4.47;;;3.83;;
36651;SDS011;53334;51.976;20.144;2023-06-24T13:38:09;4.80;;;4.20;;
36651;SDS011;53334;51.976;20.144;2023-06-24T13:40:45;5.50;;;4.15;;
36651;SDS011;53334;51.976;20.144;2023-06-24T13:43:18;5.55;;;4.20;;
36651;SDS011;53334;51.976;20.144;2023-06-24T13:45:51;6.32;;;4.68;;
36651;SDS011;53334;51.976;20.144;2023-06-24T13:48:25;4.75;;;4.35;;
36651;SDS011;53334;51.976;20.144;2023-06-24T13:50:58;7.72;;;4.55;;
36651;SDS011;53334;51.976;20.144;2023-06-24T13:53:31;6.60;;;4.07;;
36651;SDS011;53334;51.976;20.144;2023-06-24T13:56:06;4.75;;;3.90;;
36651;SDS011;53334;51.976;20.144;2023-06-24T13:58:39;4.85;;;3.92;;
36651;SDS011;53334;51.976;20.144;2023-06-24T14:01:12;4.35;;;3.95;;
36651;SDS011;53334;51.976;20.144;2023-06-24T14:03:46;3.75;;;3.45;;
36651;SDS011;53334;51.976;20.144;2023-06-24T14:06:21;3.90;;;3.60;;
36651;SDS011;53334;51.976;20.144;2023-06-24T14:08:56;4.55;;;4.15;;
36651;SDS011;53334;51.976;20.144;2023-06-24T14:11:30;5.25;;;4.22;;
36651;SDS011;53334;51.976;20.144;2023-06-24T14:14:04;4.50;;;4.05;;
36651;SDS011;53334;51.976;20.144;2023-06-24T14:16:37;4.93;;;3.95;;
36651;SDS011;53334;51.976;20.144;2023-06-24T14:19:10;5.82;;;4.22;;
36651;SDS011;53334;51.976;20.144;2023-06-24T14:21:44;4.82;;;4.18;;
36651;SDS011;53334;51.976;20.144;2023-06-24T14:24:17;4.13;;;3.70;;
36651;SDS011;53334;51.976;20.144;2023-06-24T14:26:51;3.83;;;3.53;;
36651;SDS011;53334;51.976;20.144;2023-06-24T14:29:25;4.05;;;3.45;;
36651;SDS011;53334;51.976;20.144;2023-06-24T14:31:58;3.83;;;3.28;;
36651;SDS011;53334;51.976;20.144;2023-06-24T14:34:31;6.13;;;3.60;;
36651;SDS011;53334;51.976;20.144;2023-06-24T14:37:05;3.63;;;3.33;;
36651;SDS011;53334;51.976;20.144;2023-06-24T14:39:39;3.80;;;3.50;;
36651;SDS011;53334;51.976;20.144;2023-06-24T14:42:14;4.03;;;3.60;;
36651;SDS011;53334;51.976;20.144;2023-06-24T14:44:47;3.88;;;3.40;;
36651;SDS011;53334;51.976;20.144;2023-06-24T14:47:21;4.50;;;3.88;;
36651;SDS011;53334;51.976;20.144;2023-06-24T14:49:54;4.00;;;3.63;;
36651;SDS011;53334;51.976;20.144;2023-06-24T14:52:27;4.40;;;4.07;;
36651;SDS011;53334;51.976;20.144;2023-06-24T14:55:01;4.03;;;3.67;;
36651;SDS011;53334;51.976;20.144;2023-06-24T14:57:36;5.25;;;4.45;;
36651;SDS011;53334;51.976;20.144;2023-06-24T15:00:10;3.75;;;3.45;;
36651;SDS011;53334;51.976;20.144;2023-06-24T15:02:44;3.58;;;3.28;;
36651;SDS011;53334;51.976;20.144;2023-06-24T15:05:18;4.35;;;3.75;;
36651;SDS011;53334;51.976;20.144;2023-06-24T15:07:51;4.07;;;3.67;;
36651;SDS011;53334;51.976;20.144;2023-06-24T15:10:24;5.80;;;3.53;;
36651;SDS011;53334;51.976;20.144;2023-06-24T15:12:59;3.40;;;3.10;;
36651;SDS011;53334;51.976;20.144;2023-06-24T15:15:32;4.82;;;3.70;;
36651;SDS011;53334;51.976;20.144;2023-06-24T15:18:06;3.70;;;3.25;;
36651;SDS011;53334;51.976;20.144;2023-06-24T15:20:40;4.35;;;3.42;;
36651;SDS011;53334;51.976;20.144;2023-06-24T15:23:15;3.83;;;3.53;;
36651;SDS011;53334;51.976;20.144;2023-06-24T15:25:48;3.88;;;3.58;;
36651;SDS011;53334;51.976;20.144;2023-06-24T15:28:26;3.30;;;2.90;;
36651;SDS011;53334;51.976;20.144;2023-06-24T15:31:00;3.35;;;3.05;;
36651;SDS011;53334;51.976;20.144;2023-06-24T15:33:34;3.22;;;2.97;;
36651;SDS011;53334;51.976;20.144;2023-06-24T15:36:07;4.35;;;3.95;;
36651;SDS011;53334;51.976;20.144;2023-06-24T15:38:40;3.72;;;3.40;;
36651;SDS011;53334;51.976;20.144;2023-06-24T15:41:14;3.85;;;3.53;;
36651;SDS011;53334;51.976;20.144;2023-06-24T15:43:48;4.55;;;3.47;;